createdAt,value
2019-01-28T00:03:43.028Z,5.6
2019-01-28T00:18:55.478Z,5.6
2019-01-28T00:34:07.896Z,5.5
2019-01-28T00:49:14.883Z,5.6
2019-01-28T01:04:32.979Z,5.6
2019-01-28T01:19:45.287Z,5.6
2019-01-28T01:34:57.679Z,5.4
2019-01-28T01:50:10.090Z,5.4
2019-01-28T02:05:22.468Z,5.5
2019-01-28T02:20:34.891Z,5.6
2019-01-28T02:35:47.511Z,5.7
2019-01-28T02:50:59.900Z,5.2
2019-01-28T03:06:08.431Z,4.5
2019-01-28T03:21:24.247Z,4
2019-01-28T03:36:36.024Z,4
2019-01-28T03:51:47.878Z,3.9
2019-01-28T04:06:50.358Z,4
2019-01-28T04:22:11.611Z,4
2019-01-28T04:37:23.581Z,4
2019-01-28T04:52:35.447Z,4
2019-01-28T05:07:47.496Z,4.1
2019-01-28T05:22:58.577Z,4.1
2019-01-28T05:38:11.326Z,4
2019-01-28T05:53:23.219Z,4
2019-01-28T06:08:35.132Z,4
2019-01-28T06:23:40.712Z,4
2019-01-28T06:38:59.058Z,4
2019-01-28T06:54:10.810Z,3.8
2019-01-28T07:09:23.754Z,3.8
2019-01-28T07:24:34.544Z,3.7
2019-01-28T07:39:46.239Z,3.8
2019-01-28T07:54:58.069Z,3.7
2019-01-28T08:10:10.016Z,3.8
2019-01-28T08:25:21.845Z,3.8
2019-01-28T08:40:30.741Z,4
2019-01-28T08:55:45.675Z,4.1
2019-01-28T09:10:57.710Z,4.3
2019-01-28T09:26:09.766Z,4.7
2019-01-28T09:41:13.341Z,5.2
2019-01-28T09:56:34.459Z,5.5
2019-01-28T10:11:47.081Z,6.2
2019-01-28T10:27:00.016Z,6.6
2019-01-28T10:42:13.106Z,7
2019-01-28T10:57:23.900Z,7.1
2019-01-28T11:12:39.274Z,6.6
2019-01-28T11:27:52.244Z,6.4
2019-01-28T11:43:05.369Z,7.2
2019-01-28T11:58:09.500Z,8.2
2019-01-28T12:13:32.252Z,8.8
2019-01-28T12:28:46.555Z,9.1
2019-01-28T12:44:01.473Z,8.7
2019-01-28T12:59:15.988Z,8.6
2019-01-28T13:14:23.660Z,8.8
2019-01-28T13:29:45.106Z,8.7
2019-01-28T13:44:58.703Z,8.1
2019-01-28T14:00:12.004Z,7.4
2019-01-28T14:15:25.065Z,7.3
2019-01-28T14:30:37.121Z,6.9
2019-01-28T14:45:51.182Z,6.5
2019-01-28T15:01:03.855Z,6.2
2019-01-28T15:16:16.717Z,6.2
2019-01-28T15:31:21.936Z,6
2019-01-28T15:46:42.064Z,5.8
2019-01-28T16:01:54.616Z,5.7
2019-01-28T16:17:07.035Z,5.4
2019-01-28T16:32:19.476Z,5.3
2019-01-28T16:47:31.828Z,5.4
2019-01-28T17:02:44.566Z,6.1
2019-01-28T17:17:57.118Z,5.5
2019-01-28T17:33:09.489Z,5.4
2019-01-28T17:48:16.664Z,5.4
2019-01-28T18:03:34.262Z,5.7
2019-01-28T18:18:46.771Z,5.4
2019-01-28T18:33:59.144Z,5.1
2019-01-28T18:49:11.356Z,4.7
2019-01-28T19:04:23.451Z,4.3
2019-01-28T19:19:35.447Z,4.1
2019-01-28T19:34:47.359Z,4.1
2019-01-28T19:50:00.010Z,5.6
2019-01-28T20:05:08.669Z,4.6
2019-01-28T20:20:24.184Z,4.2
2019-01-28T20:35:36.099Z,4
2019-01-28T20:50:48.085Z,3.9
2019-01-28T21:05:50.667Z,3.9
2019-01-28T21:21:11.738Z,3.8
2019-01-28T21:36:23.591Z,3.7
2019-01-28T21:51:35.358Z,3.5
2019-01-28T22:06:47.103Z,3.4
2019-01-28T22:21:59.162Z,3.4
2019-01-28T22:37:11.483Z,3.4
2019-01-28T22:52:21.927Z,3.2
2019-01-28T23:07:33.479Z,3.2
2019-01-28T23:22:38.938Z,3
2019-01-28T23:37:56.703Z,2.9
2019-01-28T23:53:08.136Z,2.5
